Time;durP1;ratioP1;P1;durP2;ratioP2;P2;SDS_P1;SDS_P2;PMS_P1;PMS_P2;Temp;Humidity;BMP_temperature;BMP_pressure;BME280_temperature;BME280_humidity;BME280_pressure;Samples;Min_cycle;Max_cycle;Signal;HPM_P1;HPM_P2
2024/01/20 00:00:22;;;;;;;17.67;9.50;;;-2.10;99.90;;;;;;7336455;32;20100;-56
2024/01/20 00:04:23;;;;;;;21.30;10.05;;;-2.10;99.90;;;;;;7342524;32;20114;-57
2024/01/20 00:08:25;;;;;;;21.92;10.25;;;-2.20;99.90;;;;;;7342308;32;20271;-56
2024/01/20 00:12:30;;;;;;;19.60;8.88;;;-2.10;99.90;;;;;;7344464;32;20122;-58
2024/01/20 00:16:32;;;;;;;17.92;8.55;;;-2.20;99.90;;;;;;7339816;32;20547;-56
2024/01/20 00:20:33;;;;;;;20.83;9.95;;;-2.10;99.90;;;;;;7339375;32;20111;-56
2024/01/20 00:24:35;;;;;;;20.50;9.90;;;-2.10;99.90;;;;;;7345333;32;20190;-56
2024/01/20 00:28:37;;;;;;;20.20;8.55;;;-2.20;99.90;;;;;;7337578;32;20164;-57
2024/01/20 00:32:39;;;;;;;19.95;10.32;;;-2.20;99.90;;;;;;7345018;32;20486;-57
2024/01/20 00:36:41;;;;;;;21.55;10.23;;;-2.20;99.90;;;;;;7337446;32;20204;-55
2024/01/20 00:40:43;;;;;;;22.67;10.80;;;-2.20;99.90;;;;;;7348246;32;20493;-55
2024/01/20 00:44:45;;;;;;;19.23;9.13;;;-2.20;99.90;;;;;;7342079;32;20529;-56
2024/01/20 00:48:46;;;;;;;27.42;10.68;;;-2.30;99.90;;;;;;7341159;32;20116;-56
2024/01/20 00:52:48;;;;;;;19.05;9.68;;;-2.30;99.90;;;;;;7344952;32;20107;-56
2024/01/20 00:56:50;;;;;;;19.45;9.15;;;-2.40;99.90;;;;;;7339747;32;20123;-57
2024/01/20 01:00:52;;;;;;;18.98;10.18;;;-2.50;99.90;;;;;;7335207;32;20217;-56
2024/01/20 01:04:54;;;;;;;16.75;9.10;;;-2.50;99.90;;;;;;7336308;32;20230;-56
2024/01/20 01:08:56;;;;;;;19.45;9.52;;;-2.60;99.90;;;;;;7341171;32;20168;-56
2024/01/20 01:12:57;;;;;;;18.92;9.32;;;-2.70;99.90;;;;;;7332216;32;20267;-56
2024/01/20 01:16:59;;;;;;;18.87;9.27;;;-2.70;99.90;;;;;;7339298;32;20152;-57
2024/01/20 01:21:01;;;;;;;19.85;10.77;;;-2.70;99.90;;;;;;7343646;32;20130;-57
2024/01/20 01:25:03;;;;;;;24.02;10.40;;;-2.70;99.90;;;;;;7340677;32;20126;-57
2024/01/20 01:29:05;;;;;;;22.83;9.07;;;-2.70;99.90;;;;;;7333662;32;20195;-55
2024/01/20 01:33:07;;;;;;;18.05;8.55;;;-2.80;99.90;;;;;;7340860;32;20250;-56
2024/01/20 01:37:09;;;;;;;18.33;9.68;;;-2.80;99.90;;;;;;7334090;32;20103;-56
2024/01/20 01:41:10;;;;;;;21.65;9.90;;;-2.90;99.90;;;;;;7338669;32;20544;-58
2024/01/20 01:45:12;;;;;;;16.15;8.60;;;-2.90;99.90;;;;;;7343677;32;20104;-55
2024/01/20 01:49:14;;;;;;;19.20;9.27;;;-2.80;99.90;;;;;;7343776;32;20152;-56
2024/01/20 01:53:16;;;;;;;21.10;9.82;;;-2.80;99.90;;;;;;7335272;32;20211;-56
2024/01/20 01:57:18;;;;;;;20.35;9.27;;;-2.90;99.90;;;;;;7333007;32;20127;-57
2024/01/20 02:01:20;;;;;;;18.92;9.25;;;-3.00;99.90;;;;;;7335783;32;20121;-57
2024/01/20 02:05:23;;;;;;;17.90;9.07;;;-3.10;99.90;;;;;;7338562;32;20095;-57
2024/01/20 02:09:25;;;;;;;19.75;9.65;;;-3.10;99.90;;;;;;7338395;32;20517;-56
2024/01/20 02:13:28;;;;;;;17.23;9.32;;;-3.20;99.90;;;;;;7337645;32;20251;-57
2024/01/20 02:17:29;;;;;;;18.08;9.55;;;-3.20;99.90;;;;;;7335380;32;20190;-59
2024/01/20 02:21:32;;;;;;;17.70;9.02;;;-3.40;99.90;;;;;;7348158;32;20218;-56
2024/01/20 02:25:34;;;;;;;15.68;8.82;;;-3.40;99.90;;;;;;7343948;32;20111;-56
2024/01/20 02:29:38;;;;;;;21.27;9.57;;;-3.40;99.90;;;;;;7344473;32;20202;-55
2024/01/20 02:33:40;;;;;;;19.60;9.88;;;-3.40;99.90;;;;;;7340275;32;20857;-56
2024/01/20 02:37:42;;;;;;;21.73;10.00;;;-3.30;99.90;;;;;;7339280;32;20112;-55
2024/01/20 02:41:43;;;;;;;19.90;9.50;;;-3.20;99.90;;;;;;7348675;32;20151;-56
2024/01/20 02:45:45;;;;;;;17.55;8.93;;;-3.10;99.90;;;;;;7349227;32;20178;-56
2024/01/20 02:49:47;;;;;;;20.60;9.55;;;-3.00;99.90;;;;;;7344107;32;20262;-56
2024/01/20 03:03:55;;;;;;;22.75;9.60;;;-2.90;99.90;;;;;;7330335;32;20111;-55
2024/01/20 03:07:57;;;;;;;18.73;9.43;;;-2.90;99.90;;;;;;7346075;32;20240;-55
2024/01/20 03:11:59;;;;;;;17.85;9.23;;;-2.90;99.90;;;;;;7344721;32;20235;-56
2024/01/20 03:16:00;;;;;;;22.48;9.18;;;-3.10;99.90;;;;;;7341882;32;20218;-56
2024/01/20 03:20:03;;;;;;;20.10;9.05;;;-3.20;99.90;;;;;;7338990;32;20547;-55
2024/01/20 03:24:05;;;;;;;18.23;9.70;;;-3.20;99.90;;;;;;7343123;32;20208;-55
2024/01/20 03:28:07;;;;;;;18.95;9.80;;;-3.50;99.90;;;;;;7348248;32;20111;-57
2024/01/20 03:32:09;;;;;;;17.40;9.75;;;-3.60;99.90;;;;;;7344275;32;20318;-56
2024/01/20 03:36:11;;;;;;;17.85;9.52;;;-3.70;99.90;;;;;;7343399;32;20159;-56
2024/01/20 03:40:14;;;;;;;20.33;9.88;;;-3.70;99.90;;;;;;7344041;32;20141;-56
2024/01/20 03:44:15;;;;;;;17.87;9.40;;;-3.70;99.90;;;;;;7343792;32;20282;-55
2024/01/20 03:48:17;;;;;;;16.65;9.48;;;-3.80;99.90;;;;;;7344914;32;20155;-57
2024/01/20 03:52:19;;;;;;;17.62;9.95;;;-3.80;99.90;;;;;;7337581;32;20161;-56
2024/01/20 03:56:21;;;;;;;17.33;9.27;;;-3.90;99.90;;;;;;7338164;32;20192;-56
2024/01/20 04:00:23;;;;;;;14.93;9.05;;;-4.00;99.90;;;;;;7329935;32;20357;-56
2024/01/20 04:04:25;;;;;;;22.30;10.25;;;-4.10;99.90;;;;;;7344395;32;20318;-58
2024/01/20 04:08:27;;;;;;;19.55;10.48;;;-4.20;99.90;;;;;;7341608;32;20460;-56
2024/01/20 04:12:28;;;;;;;26.33;10.52;;;-4.10;99.90;;;;;;7340279;32;20123;-56
2024/01/20 04:16:30;;;;;;;18.85;10.32;;;-4.10;99.90;;;;;;7345696;32;20258;-56
2024/01/20 04:20:32;;;;;;;23.58;10.35;;;-4.10;99.90;;;;;;7338947;32;20131;-56
2024/01/20 04:24:34;;;;;;;20.10;10.68;;;-4.00;99.90;;;;;;7345313;32;20152;-56
2024/01/20 04:28:36;;;;;;;21.92;10.25;;;-4.10;99.90;;;;;;7348589;32;20182;-56
2024/01/20 04:32:38;;;;;;;18.70;9.82;;;-4.10;99.90;;;;;;7343253;32;20126;-55
2024/01/20 04:36:39;;;;;;;23.02;10.38;;;-4.00;99.90;;;;;;7345636;32;20137;-56
2024/01/20 04:40:41;;;;;;;19.62;10.55;;;-4.00;99.90;;;;;;7331626;32;20152;-56
2024/01/20 04:44:43;;;;;;;20.27;9.50;;;-3.90;99.90;;;;;;7346411;32;21692;-56
2024/01/20 04:48:45;;;;;;;20.37;10.50;;;-3.90;99.90;;;;;;7343063;32;20205;-57
2024/01/20 04:52:46;;;;;;;19.80;9.63;;;-3.80;99.90;;;;;;7336207;32;20231;-55
2024/01/20 04:56:48;;;;;;;17.33;9.38;;;-3.80;99.90;;;;;;7337946;32;20611;-56
2024/01/20 05:00:50;;;;;;;15.95;8.98;;;-3.80;99.90;;;;;;7334122;32;20112;-56
2024/01/20 05:04:52;;;;;;;19.08;9.35;;;-3.80;99.90;;;;;;7339984;32;20211;-56
2024/01/20 05:08:53;;;;;;;21.08;10.40;;;-3.80;99.90;;;;;;7336178;32;20123;-56
2024/01/20 05:12:55;;;;;;;18.95;9.55;;;-3.90;99.90;;;;;;7332045;32;20522;-54
2024/01/20 05:16:57;;;;;;;19.52;9.60;;;-4.00;99.90;;;;;;7342244;32;20202;-55
2024/01/20 05:20:59;;;;;;;21.12;10.15;;;-4.00;99.90;;;;;;7333357;32;20516;-55
2024/01/20 05:25:03;;;;;;;16.98;9.27;;;-4.00;99.90;;;;;;7334294;32;20176;-56
2024/01/20 05:29:05;;;;;;;21.33;10.60;;;-4.10;99.90;;;;;;7340581;32;20125;-55
2024/01/20 05:33:07;;;;;;;18.23;9.20;;;-4.10;99.90;;;;;;7342282;32;20134;-55
2024/01/20 05:37:09;;;;;;;19.12;9.38;;;-4.20;99.90;;;;;;7337923;32;20213;-57
2024/01/20 05:41:11;;;;;;;23.05;9.02;;;-4.30;99.90;;;;;;7343284;32;20163;-55
2024/01/20 05:45:14;;;;;;;17.52;9.07;;;-4.30;99.90;;;;;;7335749;32;20201;-56
2024/01/20 05:49:16;;;;;;;19.02;9.57;;;-4.40;99.90;;;;;;7340703;32;20897;-58
2024/01/20 05:53:20;;;;;;;21.35;10.15;;;-4.50;99.90;;;;;;7337398;32;20130;-58
2024/01/20 05:57:23;;;;;;;20.73;9.50;;;-4.40;99.90;;;;;;7347155;32;20146;-55
2024/01/20 06:01:25;;;;;;;21.95;9.52;;;-4.30;99.90;;;;;;7347629;32;20534;-56
2024/01/20 06:05:27;;;;;;;20.33;9.32;;;-4.40;99.90;;;;;;7343615;32;20107;-55
2024/01/20 06:09:29;;;;;;;17.98;9.32;;;-4.60;99.90;;;;;;7344056;32;20498;-54
2024/01/20 06:13:30;;;;;;;16.17;8.25;;;-4.50;99.90;;;;;;7344529;32;20210;-56
2024/01/20 06:17:32;;;;;;;20.90;9.38;;;-4.50;99.90;;;;;;7340591;32;20168;-57
2024/01/20 06:21:34;;;;;;;22.30;9.00;;;-4.50;99.90;;;;;;7345525;32;20610;-56
2024/01/20 06:25:36;;;;;;;19.65;9.40;;;-4.50;99.90;;;;;;7335805;32;20482;-55
2024/01/20 06:29:44;;;;;;;18.90;8.95;;;-4.60;99.90;;;;;;7338956;32;20146;-55
2024/01/20 06:33:47;;;;;;;17.65;9.10;;;-4.60;99.90;;;;;;7339455;32;20119;-55
2024/01/20 06:37:48;;;;;;;16.17;8.50;;;-4.70;99.90;;;;;;7339133;32;20111;-55
2024/01/20 06:41:50;;;;;;;17.90;8.43;;;-4.80;99.90;;;;;;7344474;32;20549;-56
2024/01/20 06:45:52;;;;;;;17.45;8.32;;;-4.80;99.90;;;;;;7336729;32;20242;-55
2024/01/20 06:49:54;;;;;;;16.62;8.07;;;-4.90;99.90;;;;;;7339262;32;20124;-55
2024/01/20 06:53:58;;;;;;;19.45;8.98;;;-4.90;99.90;;;;;;7336954;32;20126;-57
2024/01/20 06:58:00;;;;;;;16.65;8.25;;;-4.80;99.90;;;;;;7334698;32;20127;-55
2024/01/20 07:02:02;;;;;;;16.00;8.30;;;-4.90;99.90;;;;;;7335331;32;20254;-54
2024/01/20 07:06:05;;;;;;;18.12;9.27;;;-5.00;99.90;;;;;;7334943;32;20280;-54
2024/01/20 07:10:08;;;;;;;16.75;8.40;;;-5.10;99.90;;;;;;7339019;32;20258;-55
2024/01/20 07:14:11;;;;;;;18.50;8.93;;;-5.10;99.90;;;;;;7337818;32;20146;-55
2024/01/20 07:18:13;;;;;;;20.35;8.57;;;-5.00;99.90;;;;;;7333627;32;20573;-55
2024/01/20 07:22:14;;;;;;;20.42;8.52;;;-4.90;99.90;;;;;;7342778;32;20545;-55
2024/01/20 07:26:16;;;;;;;15.43;7.97;;;-4.90;99.90;;;;;;7302465;32;20644;-55
2024/01/20 07:30:18;;;;;;;20.10;9.30;;;-4.80;99.90;;;;;;7340357;32;20100;-54
2024/01/20 07:34:20;;;;;;;19.80;9.75;;;-4.90;99.90;;;;;;7331588;32;20219;-55
2024/01/20 07:38:22;;;;;;;16.83;7.62;;;-4.90;99.90;;;;;;7319422;32;20142;-57
2024/01/20 07:42:24;;;;;;;20.30;8.60;;;-4.90;99.90;;;;;;7343957;32;20111;-57
2024/01/20 07:46:26;;;;;;;15.73;8.18;;;-4.90;99.90;;;;;;7341207;32;20127;-55
2024/01/20 07:50:28;;;;;;;14.52;7.60;;;-4.90;99.90;;;;;;7340997;32;20806;-58
2024/01/20 07:54:30;;;;;;;18.80;8.35;;;-4.60;99.90;;;;;;7342657;32;20509;-57
2024/01/20 07:58:32;;;;;;;18.98;8.43;;;-4.60;99.90;;;;;;7339771;32;20142;-58
2024/01/20 08:02:34;;;;;;;17.62;9.00;;;-4.60;99.90;;;;;;7343017;32;20218;-55
2024/01/20 08:06:36;;;;;;;18.10;8.23;;;-4.60;99.90;;;;;;7339786;32;20422;-55
2024/01/20 08:10:38;;;;;;;21.02;8.85;;;-4.60;99.90;;;;;;7336356;32;20177;-57
2024/01/20 08:14:40;;;;;;;20.25;8.90;;;-4.60;99.90;;;;;;7337560;32;20566;-58
2024/01/20 08:18:41;;;;;;;17.15;8.25;;;-4.50;99.90;;;;;;7344870;32;20172;-56
2024/01/20 08:22:43;;;;;;;15.40;6.93;;;-4.50;99.90;;;;;;7342867;32;20190;-57
2024/01/20 08:26:45;;;;;;;19.00;7.55;;;-4.50;99.90;;;;;;7338851;32;20123;-55
2024/01/20 08:30:47;;;;;;;16.70;7.47;;;-4.40;99.90;;;;;;7339622;32;20126;-56
2024/01/20 08:34:49;;;;;;;16.12;8.55;;;-4.20;99.90;;;;;;7342775;32;20099;-57
2024/01/20 08:38:51;;;;;;;19.37;8.45;;;-4.30;99.90;;;;;;7339224;32;20332;-57
2024/01/20 08:42:52;;;;;;;16.23;7.70;;;-4.30;99.90;;;;;;7338967;32;20205;-57
2024/01/20 08:46:54;;;;;;;12.65;7.03;;;-4.20;99.90;;;;;;7322906;32;20237;-57
2024/01/20 08:50:56;;;;;;;16.17;7.57;;;-4.20;99.90;;;;;;7350358;32;20126;-57
2024/01/20 08:54:58;;;;;;;14.73;7.70;;;-4.10;99.90;;;;;;7340503;32;20178;-57
2024/01/20 08:58:59;;;;;;;13.52;7.90;;;-3.90;99.90;;;;;;7341847;32;20129;-57
2024/01/20 09:03:01;;;;;;;15.75;7.80;;;-3.90;99.90;;;;;;7345718;32;20126;-56
2024/01/20 09:07:03;;;;;;;13.02;7.22;;;-3.70;99.90;;;;;;7342486;32;20146;-56
2024/01/20 09:11:05;;;;;;;14.65;7.03;;;-3.60;99.90;;;;;;7344042;32;20488;-56
2024/01/20 09:15:07;;;;;;;14.55;7.20;;;-3.50;99.90;;;;;;7346747;32;20125;-56
2024/01/20 09:19:09;;;;;;;14.55;7.32;;;-3.40;99.90;;;;;;7341800;32;20177;-55
2024/01/20 09:23:12;;;;;;;15.48;7.30;;;-3.40;99.90;;;;;;7341143;32;20127;-56
2024/01/20 09:27:16;;;;;;;15.60;7.25;;;-3.30;99.90;;;;;;7346649;32;20511;-56
2024/01/20 09:31:18;;;;;;;15.85;7.22;;;-3.20;99.90;;;;;;7339417;32;20198;-55
2024/01/20 09:35:20;;;;;;;15.00;7.00;;;-3.10;99.90;;;;;;7327619;32;20260;-57
2024/01/20 09:39:22;;;;;;;16.12;7.43;;;-3.00;99.90;;;;;;7341811;32;20095;-57
2024/01/20 09:43:25;;;;;;;14.07;7.15;;;-3.00;99.90;;;;;;7345943;32;20163;-57
2024/01/20 09:47:27;;;;;;;15.73;8.20;;;-2.90;99.90;;;;;;7342964;32;20149;-55
2024/01/20 09:51:31;;;;;;;12.98;7.15;;;-2.80;99.90;;;;;;7332162;32;20216;-56
2024/01/20 09:55:34;;;;;;;14.63;7.37;;;-2.70;99.90;;;;;;7335781;32;20139;-56
2024/01/20 09:59:36;;;;;;;18.58;7.12;;;-2.60;99.90;;;;;;7338721;32;20119;-58
2024/01/20 10:03:39;;;;;;;15.68;6.97;;;-2.40;99.90;;;;;;7332623;32;20303;-55
2024/01/20 10:07:42;;;;;;;17.23;7.50;;;-2.20;99.90;;;;;;7332868;32;20608;-56
2024/01/20 10:11:43;;;;;;;13.43;6.85;;;-2.10;99.90;;;;;;7339016;32;20565;-58
2024/01/20 10:15:45;;;;;;;14.15;7.05;;;-2.00;99.90;;;;;;7335919;32;20282;-56
2024/01/20 10:19:47;;;;;;;13.40;7.03;;;-2.00;99.90;;;;;;7341878;32;20213;-58
2024/01/20 10:23:49;;;;;;;13.75;6.90;;;-1.90;99.90;;;;;;7333714;32;20137;-56
2024/01/20 10:27:51;;;;;;;15.20;6.62;;;-1.80;99.90;;;;;;7333962;32;20229;-56
2024/01/20 10:31:53;;;;;;;18.08;6.95;;;-1.70;99.90;;;;;;7331524;32;20104;-57
2024/01/20 10:35:55;;;;;;;13.90;7.35;;;-1.50;99.90;;;;;;7338544;32;20783;-57
2024/01/20 10:40:01;;;;;;;13.60;6.70;;;-1.40;99.90;;;;;;7343294;32;20211;-58
2024/01/20 10:44:05;;;;;;;14.02;7.50;;;-1.30;99.90;;;;;;7339394;32;20130;-55
2024/01/20 10:48:18;;;;;;;14.35;6.87;;;-1.30;99.90;;;;;;7340110;32;20234;-57
2024/01/20 10:52:21;;;;;;;12.18;6.68;;;-1.30;99.90;;;;;;7337938;32;20108;-57
2024/01/20 10:56:26;;;;;;;14.85;7.32;;;-1.30;99.90;;;;;;7337898;32;20549;-57
2024/01/20 11:00:27;;;;;;;12.93;6.78;;;-1.30;99.90;;;;;;7338465;32;20261;-56
2024/01/20 11:04:34;;;;;;;10.57;6.50;;;-1.20;99.90;;;;;;7345671;32;20115;-57
2024/01/20 11:08:36;;;;;;;15.32;7.32;;;-1.20;99.90;;;;;;7345357;32;20103;-57
2024/01/20 11:12:38;;;;;;;14.00;7.15;;;-1.10;99.90;;;;;;7345677;32;20220;-56
2024/01/20 11:16:40;;;;;;;13.77;7.05;;;-0.90;99.90;;;;;;7344263;32;20133;-57
2024/01/20 11:20:53;;;;;;;33.80;16.55;;;-0.90;99.90;;;;;;7343833;32;20154;-57
2024/01/20 11:24:56;;;;;;;14.80;7.03;;;-0.70;99.90;;;;;;7336464;32;20111;-56
2024/01/20 11:29:04;;;;;;;16.15;7.22;;;-0.80;99.90;;;;;;7345709;32;20125;-57
2024/01/20 11:33:08;;;;;;;11.68;6.32;;;-0.60;99.90;;;;;;7348969;32;20134;-56
2024/01/20 11:37:12;;;;;;;11.82;5.72;;;-0.50;99.90;;;;;;7345229;32;20128;-56
2024/01/20 11:41:17;;;;;;;14.68;6.60;;;-0.40;99.90;;;;;;7340511;32;20534;-56
2024/01/20 11:45:19;;;;;;;12.35;6.62;;;-0.30;99.90;;;;;;7346931;32;20251;-56
2024/01/20 11:49:21;;;;;;;12.95;6.07;;;-0.30;99.90;;;;;;7349934;32;20161;-56
2024/01/20 11:53:23;;;;;;;12.90;6.75;;;-0.10;99.90;;;;;;7344489;32;20137;-57
2024/01/20 11:57:29;;;;;;;10.82;5.97;;;0.10;99.90;;;;;;7349461;32;20160;-56
2024/01/20 12:01:31;;;;;;;12.27;6.45;;;0.00;99.90;;;;;;7350419;32;20114;-56
2024/01/20 12:05:33;;;;;;;12.30;6.22;;;0.00;99.90;;;;;;7349553;32;20197;-57
2024/01/20 12:09:36;;;;;;;12.80;6.82;;;0.10;99.90;;;;;;7344936;32;20506;-58
2024/01/20 12:13:38;;;;;;;9.90;6.28;;;0.10;99.90;;;;;;7343031;32;20834;-57
2024/01/20 12:17:40;;;;;;;12.00;6.45;;;0.20;99.90;;;;;;7346213;32;20126;-57
2024/01/20 12:21:42;;;;;;;12.50;6.78;;;0.30;99.90;;;;;;7345483;32;20107;-58
2024/01/20 12:25:44;;;;;;;11.10;5.75;;;0.40;99.90;;;;;;7338182;32;20721;-56
2024/01/20 12:29:46;;;;;;;11.70;5.82;;;0.40;99.90;;;;;;7343098;32;20235;-57
2024/01/20 12:33:47;;;;;;;11.57;5.47;;;0.60;99.90;;;;;;7342895;32;20099;-57
2024/01/20 12:37:49;;;;;;;10.50;5.75;;;0.50;99.90;;;;;;7336605;32;20684;-57
2024/01/20 12:41:53;;;;;;;10.00;5.40;;;0.60;99.90;;;;;;7346024;32;20190;-57
2024/01/20 12:45:55;;;;;;;10.52;6.53;;;0.70;99.90;;;;;;7335052;32;20184;-56
2024/01/20 12:49:56;;;;;;;10.73;5.75;;;0.80;99.90;;;;;;7341490;32;20134;-57
2024/01/20 12:53:58;;;;;;;9.98;5.53;;;0.80;99.90;;;;;;7335397;32;20652;-57
2024/01/20 12:58:00;;;;;;;11.43;5.35;;;0.90;99.90;;;;;;7338312;32;20138;-57
2024/01/20 13:02:02;;;;;;;13.35;6.37;;;0.90;99.90;;;;;;7337296;32;20266;-57
2024/01/20 13:06:03;;;;;;;11.68;5.70;;;1.00;99.90;;;;;;7337488;32;20160;-57
2024/01/20 13:10:06;;;;;;;11.65;6.07;;;1.10;99.90;;;;;;7339904;32;20099;-57
2024/01/20 13:14:07;;;;;;;12.57;6.57;;;1.10;99.90;;;;;;7342856;32;20799;-57
2024/01/20 13:18:09;;;;;;;11.20;6.12;;;1.10;99.90;;;;;;7336907;32;20223;-57
2024/01/20 13:22:12;;;;;;;11.95;6.07;;;1.20;99.90;;;;;;7336612;32;20252;-55
2024/01/20 13:26:14;;;;;;;11.38;6.25;;;1.20;99.90;;;;;;7343098;32;20219;-56
2024/01/20 13:30:16;;;;;;;11.93;6.45;;;1.30;99.90;;;;;;7335352;32;20139;-56
2024/01/20 13:34:18;;;;;;;13.18;6.80;;;1.20;99.90;;;;;;7337732;32;20205;-56
2024/01/20 13:38:19;;;;;;;14.27;7.15;;;1.30;99.90;;;;;;7340161;32;20135;-57
2024/01/20 13:42:21;;;;;;;14.02;6.60;;;1.40;99.90;;;;;;7338738;32;20155;-56
2024/01/20 13:46:23;;;;;;;11.75;6.80;;;1.40;99.90;;;;;;7336926;32;20149;-56
2024/01/20 13:50:25;;;;;;;13.15;7.07;;;1.50;99.90;;;;;;7336837;32;20603;-57
2024/01/20 13:54:27;;;;;;;15.40;7.18;;;1.60;99.90;;;;;;7341733;32;20176;-56
2024/01/20 13:58:29;;;;;;;15.80;6.70;;;1.50;99.90;;;;;;7335889;32;20763;-55
2024/01/20 14:02:30;;;;;;;19.90;7.50;;;1.50;99.90;;;;;;7335411;32;20471;-55
2024/01/20 14:06:32;;;;;;;16.25;7.47;;;1.50;99.90;;;;;;7334328;32;20448;-56
2024/01/20 14:10:34;;;;;;;14.93;6.57;;;1.40;99.90;;;;;;7338499;32;20203;-63
2024/01/20 14:14:36;;;;;;;10.32;5.90;;;1.50;99.90;;;;;;7338674;32;20236;-56
2024/01/20 14:18:38;;;;;;;11.20;6.37;;;1.90;99.90;;;;;;7343334;32;20151;-57
2024/01/20 14:22:40;;;;;;;13.45;6.30;;;2.10;99.90;;;;;;7347888;32;20566;-55
2024/01/20 14:26:42;;;;;;;13.55;7.25;;;2.30;99.90;;;;;;7346551;32;20264;-56
2024/01/20 14:30:43;;;;;;;16.48;7.15;;;2.40;99.90;;;;;;7341443;32;20136;-56
2024/01/20 14:34:46;;;;;;;11.93;6.68;;;2.30;99.90;;;;;;7343624;32;20129;-56
2024/01/20 14:38:48;;;;;;;11.98;7.20;;;2.00;99.90;;;;;;7346983;32;20212;-57
2024/01/20 14:42:50;;;;;;;11.93;6.57;;;1.80;99.90;;;;;;7343360;32;20100;-57
2024/01/20 14:46:52;;;;;;;13.18;7.18;;;1.70;99.90;;;;;;7339972;32;20133;-56
2024/01/20 14:50:54;;;;;;;10.88;6.40;;;1.40;99.90;;;;;;7339159;32;20103;-56
2024/01/20 14:54:56;;;;;;;11.80;6.93;;;1.30;99.90;;;;;;7333091;32;20138;-56
2024/01/20 14:59:04;;;;;;;13.95;7.35;;;1.00;99.90;;;;;;7338799;32;20516;-56
2024/01/20 15:03:06;;;;;;;13.35;7.72;;;1.00;99.90;;;;;;7343473;32;20100;-56
2024/01/20 15:07:08;;;;;;;14.10;7.28;;;0.90;99.90;;;;;;7344959;32;20230;-56
2024/01/20 15:11:10;;;;;;;12.25;7.00;;;0.80;99.90;;;;;;7340254;32;20592;-57
2024/01/20 15:15:12;;;;;;;13.77;7.87;;;0.70;99.90;;;;;;7343645;32;20107;-57
2024/01/20 15:19:15;;;;;;;14.63;7.95;;;0.50;99.90;;;;;;7332448;32;20202;-56
2024/01/20 15:23:17;;;;;;;15.23;7.93;;;0.40;99.90;;;;;;7342326;32;20408;-56
2024/01/20 15:27:19;;;;;;;13.90;8.07;;;0.40;99.90;;;;;;7343027;32;20127;-56
2024/01/20 15:31:21;;;;;;;17.05;7.90;;;0.30;99.90;;;;;;7335556;32;20131;-56
2024/01/20 15:35:23;;;;;;;15.23;7.95;;;0.20;99.90;;;;;;7341884;32;20481;-57
2024/01/20 15:39:24;;;;;;;15.57;8.15;;;0.20;99.90;;;;;;7343164;32;20393;-57
2024/01/20 15:43:26;;;;;;;19.17;8.32;;;0.10;99.90;;;;;;7343765;32;20100;-57
2024/01/20 15:47:28;;;;;;;16.90;8.38;;;0.00;99.90;;;;;;7341635;32;20163;-57
2024/01/20 15:51:30;;;;;;;14.75;8.27;;;-0.10;99.90;;;;;;7339282;32;20104;-56
2024/01/20 15:55:32;;;;;;;15.73;8.05;;;-0.10;99.90;;;;;;7344023;32;20174;-57
2024/01/20 15:59:33;;;;;;;15.38;7.78;;;-0.10;99.90;;;;;;7341202;32;20803;-57
2024/01/20 16:03:35;;;;;;;14.10;7.60;;;-0.20;99.90;;;;;;7343590;32;20136;-56
2024/01/20 16:07:37;;;;;;;14.00;7.22;;;-0.40;99.90;;;;;;7341987;32;20473;-57
2024/01/20 16:11:39;;;;;;;18.12;8.10;;;-0.50;99.90;;;;;;7318069;32;20519;-55
2024/01/20 16:15:44;;;;;;;14.43;7.68;;;-0.50;99.90;;;;;;7340704;32;20546;-54
2024/01/20 16:25:02;;;;;;;19.70;7.55;;;-0.60;99.90;;;;;;7327317;32;20138;-55
2024/01/20 16:29:04;;;;;;;14.63;7.22;;;-0.60;99.90;;;;;;7330480;32;20100;-54
2024/01/20 16:33:06;;;;;;;11.10;6.50;;;-0.60;99.90;;;;;;7342260;32;20100;-54
2024/01/20 16:37:08;;;;;;;15.73;6.97;;;-0.70;99.90;;;;;;7338639;32;20142;-55
2024/01/20 16:41:11;;;;;;;13.52;7.10;;;-0.70;99.90;;;;;;7344617;32;20198;-55
2024/01/20 16:45:12;;;;;;;12.10;6.68;;;-0.80;99.90;;;;;;7322801;32;20115;-54
2024/01/20 16:49:14;;;;;;;14.02;6.57;;;-0.70;99.90;;;;;;7332369;32;20139;-56
2024/01/20 16:53:17;;;;;;;12.55;6.35;;;-0.70;99.90;;;;;;7340641;32;20301;-55
2024/01/20 16:57:19;;;;;;;12.10;6.15;;;-0.80;99.90;;;;;;7343547;32;20400;-55
2024/01/20 17:01:21;;;;;;;15.57;6.35;;;-0.70;99.90;;;;;;7336408;32;20145;-56
2024/01/20 17:05:24;;;;;;;11.05;6.47;;;-0.80;99.90;;;;;;7338363;32;20576;-56
2024/01/20 17:09:26;;;;;;;13.32;6.62;;;-0.70;99.90;;;;;;7341348;32;20130;-55
2024/01/20 17:13:27;;;;;;;14.00;6.25;;;-0.70;99.90;;;;;;7342882;32;20258;-56
2024/01/20 17:17:29;;;;;;;12.80;5.97;;;-0.90;99.90;;;;;;7344237;32;20103;-55
2024/01/20 17:21:33;;;;;;;11.55;5.80;;;-1.00;99.90;;;;;;7343378;32;20205;-57
2024/01/20 17:25:35;;;;;;;12.73;6.37;;;-0.90;99.90;;;;;;7344623;32;20183;-56
2024/01/20 17:29:36;;;;;;;11.23;6.25;;;-0.80;99.90;;;;;;7338902;32;20157;-56
2024/01/20 17:33:38;;;;;;;12.45;6.60;;;-0.80;99.90;;;;;;7342563;32;20182;-56
2024/01/20 17:37:40;;;;;;;14.38;7.30;;;-0.80;99.90;;;;;;7343215;32;20126;-56
2024/01/20 17:41:43;;;;;;;11.20;6.25;;;-0.80;99.90;;;;;;7342250;32;20143;-56
2024/01/20 17:45:48;;;;;;;12.23;6.50;;;-0.80;99.90;;;;;;7331794;32;20202;-55
2024/01/20 17:49:50;;;;;;;13.20;6.35;;;-0.90;99.90;;;;;;7331254;32;20107;-56
2024/01/20 17:53:52;;;;;;;10.85;6.50;;;-0.80;99.90;;;;;;7343928;32;20131;-55
2024/01/20 17:57:54;;;;;;;13.18;6.35;;;-0.80;99.90;;;;;;7344646;32;20145;-56
2024/01/20 18:01:55;;;;;;;10.93;5.57;;;-0.90;99.90;;;;;;7344125;32;20099;-56
2024/01/20 18:05:57;;;;;;;13.48;7.12;;;-0.80;99.90;;;;;;7330978;32;20336;-57
2024/01/20 18:09:59;;;;;;;10.68;5.82;;;-0.90;99.90;;;;;;7343140;32;20214;-57
2024/01/20 18:14:01;;;;;;;11.35;6.20;;;-0.70;99.90;;;;;;7346463;32;20107;-57
2024/01/20 18:18:03;;;;;;;12.85;6.72;;;-0.70;99.90;;;;;;7342602;32;20242;-55
2024/01/20 18:22:06;;;;;;;13.93;6.10;;;-0.70;99.90;;;;;;7347325;32;20107;-55
2024/01/20 18:26:08;;;;;;;12.60;6.53;;;-0.70;99.90;;;;;;7339670;32;20462;-56
2024/01/20 18:30:10;;;;;;;11.98;6.32;;;-0.70;99.90;;;;;;7333708;32;20197;-55
2024/01/20 18:34:12;;;;;;;12.15;6.70;;;-0.60;99.90;;;;;;7330020;32;20230;-56
2024/01/20 18:38:15;;;;;;;15.15;6.65;;;-0.70;99.90;;;;;;7341356;32;20125;-53
2024/01/20 18:42:19;;;;;;;12.43;6.45;;;-0.70;99.90;;;;;;7343893;32;20283;-54
2024/01/20 18:46:21;;;;;;;11.12;5.87;;;-0.70;99.90;;;;;;7349057;32;20214;-56
2024/01/20 18:50:23;;;;;;;10.98;5.90;;;-0.60;99.90;;;;;;7339965;32;20211;-56
2024/01/20 18:54:25;;;;;;;14.18;6.20;;;-0.60;99.90;;;;;;7341141;32;20523;-55
2024/01/20 18:58:26;;;;;;;10.77;5.93;;;-0.60;99.90;;;;;;7346135;32;20278;-55
2024/01/20 19:02:28;;;;;;;11.05;5.72;;;-0.60;99.90;;;;;;7341788;32;20151;-56
2024/01/20 19:06:30;;;;;;;11.02;5.20;;;-0.70;99.90;;;;;;7346942;32;20366;-56
2024/01/20 19:10:32;;;;;;;9.98;5.78;;;-0.60;99.90;;;;;;7345867;32;20151;-57
2024/01/20 19:14:34;;;;;;;13.90;5.97;;;-0.60;99.90;;;;;;7342808;32;20262;-57
2024/01/20 19:18:37;;;;;;;10.85;5.50;;;-0.60;99.90;;;;;;7334356;32;20219;-56
2024/01/20 19:22:39;;;;;;;12.60;5.05;;;-0.70;99.90;;;;;;7350536;32;20131;-56
2024/01/20 19:26:41;;;;;;;10.68;5.12;;;-0.50;99.90;;;;;;7342260;32;20099;-57
2024/01/20 19:30:43;;;;;;;10.20;5.15;;;-0.50;99.90;;;;;;7344117;32;20146;-55
2024/01/20 19:34:45;;;;;;;8.70;4.65;;;-0.50;99.90;;;;;;7338144;32;20108;-55
2024/01/20 19:38:47;;;;;;;11.55;5.22;;;-0.50;99.90;;;;;;7343924;32;20180;-54
2024/01/20 19:42:49;;;;;;;10.50;4.65;;;-0.60;99.90;;;;;;7342043;32;20122;-56
2024/01/20 19:46:50;;;;;;;10.48;5.00;;;-0.50;99.90;;;;;;7345431;32;20795;-56
2024/01/20 19:50:56;;;;;;;7.37;4.10;;;-0.50;99.90;;;;;;7315539;32;20520;-56
2024/01/20 19:54:58;;;;;;;9.43;4.20;;;-0.40;99.90;;;;;;7337754;32;20111;-55
2024/01/20 19:58:59;;;;;;;8.82;4.35;;;-0.40;99.90;;;;;;7344210;32;20296;-56
2024/01/20 20:03:01;;;;;;;7.07;4.03;;;-0.30;99.90;;;;;;7332670;32;20115;-58
2024/01/20 20:07:08;;;;;;;7.00;3.83;;;-0.40;99.90;;;;;;7346669;32;20576;-55
2024/01/20 20:11:10;;;;;;;7.20;3.92;;;-0.30;99.90;;;;;;7346840;32;20754;-55
2024/01/20 20:15:12;;;;;;;22.48;9.85;;;-0.30;99.90;;;;;;7344338;32;20199;-56
2024/01/20 20:19:14;;;;;;;9.65;4.68;;;-0.40;99.90;;;;;;7336408;32;20194;-56
2024/01/20 20:23:16;;;;;;;9.10;4.47;;;-0.60;99.90;;;;;;7345074;32;20103;-55
2024/01/20 20:27:19;;;;;;;7.70;4.32;;;-0.70;99.90;;;;;;7343168;32;20150;-56
2024/01/20 20:31:22;;;;;;;7.05;3.70;;;-0.70;99.90;;;;;;7336786;32;20258;-55
2024/01/20 20:35:24;;;;;;;8.82;4.32;;;-0.80;99.90;;;;;;7337699;32;20102;-55
2024/01/20 20:39:25;;;;;;;10.45;4.47;;;-0.70;99.90;;;;;;7343904;32;20179;-56
2024/01/20 20:43:33;;;;;;;7.00;3.75;;;-0.80;99.90;;;;;;7334445;32;20230;-56
2024/01/20 20:47:35;;;;;;;9.18;3.95;;;-0.90;99.90;;;;;;7340002;32;22279;-56
2024/01/20 20:51:37;;;;;;;8.07;4.25;;;-1.10;99.90;;;;;;7338176;32;20157;-57
2024/01/20 20:55:39;;;;;;;8.48;3.80;;;-1.20;99.90;;;;;;7345285;32;20107;-57
2024/01/20 20:59:44;;;;;;;7.72;3.80;;;-1.10;99.90;;;;;;7337162;32;20980;-56